sensor_id;sensor_type;location;lat;lon;timestamp;P1;durP1;ratioP1;P2;durP2;ratioP2
21233;SDS011;10774;42.178;26.578;2023-04-25T00:01:33;9.48;;;3.80;;
21233;SDS011;10774;42.178;26.578;2023-04-25T00:04:02;7.13;;;3.95;;
21233;SDS011;10774;42.178;26.578;2023-04-25T00:06:31;6.53;;;3.35;;
21233;SDS011;10774;42.178;26.578;2023-04-25T00:09:01;6.68;;;3.60;;
21233;SDS011;10774;42.178;26.578;2023-04-25T00:11:28;10.77;;;4.22;;
21233;SDS011;10774;42.178;26.578;2023-04-25T00:13:55;9.82;;;4.10;;
21233;SDS011;10774;42.178;26.578;2023-04-25T00:16:20;7.35;;;3.70;;
21233;SDS011;10774;42.178;26.578;2023-04-25T00:18:46;6.22;;;4.07;;
21233;SDS011;10774;42.178;26.578;2023-04-25T00:21:16;6.60;;;4.10;;
21233;SDS011;10774;42.178;26.578;2023-04-25T00:23:43;6.93;;;3.83;;
21233;SDS011;10774;42.178;26.578;2023-04-25T00:26:08;6.55;;;3.92;;
21233;SDS011;10774;42.178;26.578;2023-04-25T00:28:34;5.15;;;4.05;;
21233;SDS011;10774;42.178;26.578;2023-04-25T00:30:59;7.75;;;3.95;;
21233;SDS011;10774;42.178;26.578;2023-04-25T00:33:25;4.70;;;3.60;;
21233;SDS011;10774;42.178;26.578;2023-04-25T00:35:50;9.15;;;4.88;;
21233;SDS011;10774;42.178;26.578;2023-04-25T00:38:15;9.60;;;4.68;;
21233;SDS011;10774;42.178;26.578;2023-04-25T00:40:41;11.27;;;4.70;;
21233;SDS011;10774;42.178;26.578;2023-04-25T00:43:08;7.32;;;4.18;;
21233;SDS011;10774;42.178;26.578;2023-04-25T00:45:34;7.88;;;4.35;;
21233;SDS011;10774;42.178;26.578;2023-04-25T00:48:03;5.93;;;4.20;;
21233;SDS011;10774;42.178;26.578;2023-04-25T00:50:29;6.85;;;4.20;;
21233;SDS011;10774;42.178;26.578;2023-04-25T00:52:55;9.45;;;4.82;;
21233;SDS011;10774;42.178;26.578;2023-04-25T00:55:20;8.65;;;4.97;;
21233;SDS011;10774;42.178;26.578;2023-04-25T00:57:46;9.75;;;4.57;;
21233;SDS011;10774;42.178;26.578;2023-04-25T01:00:12;11.80;;;5.18;;
21233;SDS011;10774;42.178;26.578;2023-04-25T01:02:39;11.88;;;5.22;;
21233;SDS011;10774;42.178;26.578;2023-04-25T01:05:07;9.55;;;4.90;;
21233;SDS011;10774;42.178;26.578;2023-04-25T01:07:33;7.93;;;4.22;;
21233;SDS011;10774;42.178;26.578;2023-04-25T01:09:58;10.18;;;4.03;;
21233;SDS011;10774;42.178;26.578;2023-04-25T01:12:24;7.57;;;4.10;;
21233;SDS011;10774;42.178;26.578;2023-04-25T01:14:49;9.20;;;4.22;;
21233;SDS011;10774;42.178;26.578;2023-04-25T01:17:15;6.65;;;4.20;;
21233;SDS011;10774;42.178;26.578;2023-04-25T01:19:41;5.40;;;3.72;;
21233;SDS011;10774;42.178;26.578;2023-04-25T01:22:06;8.40;;;3.75;;
21233;SDS011;10774;42.178;26.578;2023-04-25T01:24:35;6.57;;;4.00;;
21233;SDS011;10774;42.178;26.578;2023-04-25T01:27:01;7.25;;;4.00;;
21233;SDS011;10774;42.178;26.578;2023-04-25T01:29:27;6.82;;;4.10;;
21233;SDS011;10774;42.178;26.578;2023-04-25T01:31:53;8.10;;;4.15;;
21233;SDS011;10774;42.178;26.578;2023-04-25T01:34:19;8.45;;;4.20;;
21233;SDS011;10774;42.178;26.578;2023-04-25T01:36:45;7.68;;;4.57;;
21233;SDS011;10774;42.178;26.578;2023-04-25T01:39:15;10.90;;;4.38;;
21233;SDS011;10774;42.178;26.578;2023-04-25T01:41:41;7.32;;;3.67;;
21233;SDS011;10774;42.178;26.578;2023-04-25T01:44:07;8.90;;;4.78;;
21233;SDS011;10774;42.178;26.578;2023-04-25T01:46:33;6.38;;;4.38;;
21233;SDS011;10774;42.178;26.578;2023-04-25T01:48:59;8.13;;;4.25;;
21233;SDS011;10774;42.178;26.578;2023-04-25T01:51:25;6.13;;;4.25;;
21233;SDS011;10774;42.178;26.578;2023-04-25T01:53:50;6.35;;;4.07;;
21233;SDS011;10774;42.178;26.578;2023-04-25T01:56:17;9.73;;;4.50;;
21233;SDS011;10774;42.178;26.578;2023-04-25T01:58:43;5.93;;;4.15;;
21233;SDS011;10774;42.178;26.578;2023-04-25T02:01:08;6.60;;;4.53;;
21233;SDS011;10774;42.178;26.578;2023-04-25T02:03:34;7.72;;;4.35;;
21233;SDS011;10774;42.178;26.578;2023-04-25T02:05:59;8.95;;;4.45;;
21233;SDS011;10774;42.178;26.578;2023-04-25T02:08:25;6.57;;;3.95;;
21233;SDS011;10774;42.178;26.578;2023-04-25T02:10:51;5.93;;;4.30;;
21233;SDS011;10774;42.178;26.578;2023-04-25T02:13:17;8.27;;;4.05;;
21233;SDS011;10774;42.178;26.578;2023-04-25T02:15:42;9.77;;;6.07;;
21233;SDS011;10774;42.178;26.578;2023-04-25T02:18:08;9.38;;;5.57;;
21233;SDS011;10774;42.178;26.578;2023-04-25T02:20:35;8.82;;;5.38;;
21233;SDS011;10774;42.178;26.578;2023-04-25T02:23:01;8.50;;;4.65;;
21233;SDS011;10774;42.178;26.578;2023-04-25T02:25:27;10.60;;;5.18;;
21233;SDS011;10774;42.178;26.578;2023-04-25T02:27:52;10.95;;;5.28;;
21233;SDS011;10774;42.178;26.578;2023-04-25T02:30:18;6.82;;;3.97;;
21233;SDS011;10774;42.178;26.578;2023-04-25T02:32:43;8.00;;;4.95;;
21233;SDS011;10774;42.178;26.578;2023-04-25T02:35:09;4.53;;;3.90;;
21233;SDS011;10774;42.178;26.578;2023-04-25T02:37:36;5.25;;;3.92;;
21233;SDS011;10774;42.178;26.578;2023-04-25T02:40:03;7.07;;;4.50;;
21233;SDS011;10774;42.178;26.578;2023-04-25T02:42:29;8.20;;;4.90;;
21233;SDS011;10774;42.178;26.578;2023-04-25T02:44:55;7.90;;;4.20;;
21233;SDS011;10774;42.178;26.578;2023-04-25T02:47:20;7.10;;;4.07;;
21233;SDS011;10774;42.178;26.578;2023-04-25T02:49:46;7.07;;;4.32;;
21233;SDS011;10774;42.178;26.578;2023-04-25T02:52:12;7.47;;;4.20;;
21233;SDS011;10774;42.178;26.578;2023-04-25T02:54:38;5.45;;;4.72;;
21233;SDS011;10774;42.178;26.578;2023-04-25T02:57:04;6.00;;;4.88;;
21233;SDS011;10774;42.178;26.578;2023-04-25T02:59:29;14.55;;;5.82;;
21233;SDS011;10774;42.178;26.578;2023-04-25T03:01:55;6.97;;;4.82;;
21233;SDS011;10774;42.178;26.578;2023-04-25T03:04:20;9.90;;;5.75;;
21233;SDS011;10774;42.178;26.578;2023-04-25T03:06:48;7.47;;;5.93;;
21233;SDS011;10774;42.178;26.578;2023-04-25T03:09:15;6.60;;;5.00;;
21233;SDS011;10774;42.178;26.578;2023-04-25T03:11:40;6.82;;;5.53;;
21233;SDS011;10774;42.178;26.578;2023-04-25T03:14:06;10.38;;;6.93;;
21233;SDS011;10774;42.178;26.578;2023-04-25T03:16:31;15.73;;;7.53;;
21233;SDS011;10774;42.178;26.578;2023-04-25T03:18:56;10.15;;;7.38;;
21233;SDS011;10774;42.178;26.578;2023-04-25T03:21:22;13.32;;;7.57;;
21233;SDS011;10774;42.178;26.578;2023-04-25T03:23:48;13.15;;;7.68;;
21233;SDS011;10774;42.178;26.578;2023-04-25T03:26:13;13.48;;;8.30;;
21233;SDS011;10774;42.178;26.578;2023-04-25T03:28:39;13.70;;;7.90;;
21233;SDS011;10774;42.178;26.578;2023-04-25T03:31:05;15.27;;;10.38;;
21233;SDS011;10774;42.178;26.578;2023-04-25T03:33:31;14.95;;;10.57;;
21233;SDS011;10774;42.178;26.578;2023-04-25T03:35:56;16.08;;;9.57;;
21233;SDS011;10774;42.178;26.578;2023-04-25T03:38:21;31.40;;;21.45;;
21233;SDS011;10774;42.178;26.578;2023-04-25T03:40:47;20.45;;;15.23;;
21233;SDS011;10774;42.178;26.578;2023-04-25T03:43:12;21.58;;;13.60;;
21233;SDS011;10774;42.178;26.578;2023-04-25T03:45:38;26.55;;;16.40;;
21233;SDS011;10774;42.178;26.578;2023-04-25T03:48:03;23.48;;;13.32;;
21233;SDS011;10774;42.178;26.578;2023-04-25T03:50:29;17.55;;;10.23;;
21233;SDS011;10774;42.178;26.578;2023-04-25T03:52:54;14.82;;;9.77;;
21233;SDS011;10774;42.178;26.578;2023-04-25T03:55:20;12.27;;;8.95;;
21233;SDS011;10774;42.178;26.578;2023-04-25T03:57:45;11.55;;;10.35;;
21233;SDS011;10774;42.178;26.578;2023-04-25T04:00:11;13.10;;;9.52;;
21233;SDS011;10774;42.178;26.578;2023-04-25T04:02:37;15.32;;;8.30;;
21233;SDS011;10774;42.178;26.578;2023-04-25T04:05:03;13.55;;;9.27;;
21233;SDS011;10774;42.178;26.578;2023-04-25T04:07:29;13.45;;;9.43;;
21233;SDS011;10774;42.178;26.578;2023-04-25T04:09:57;18.30;;;9.75;;
21233;SDS011;10774;42.178;26.578;2023-04-25T04:12:22;14.13;;;9.55;;
21233;SDS011;10774;42.178;26.578;2023-04-25T04:14:47;13.75;;;9.77;;
21233;SDS011;10774;42.178;26.578;2023-04-25T04:17:13;12.45;;;9.95;;
21233;SDS011;10774;42.178;26.578;2023-04-25T04:19:39;14.40;;;10.57;;
21233;SDS011;10774;42.178;26.578;2023-04-25T04:22:04;19.55;;;10.25;;
21233;SDS011;10774;42.178;26.578;2023-04-25T04:24:29;13.77;;;9.75;;
21233;SDS011;10774;42.178;26.578;2023-04-25T04:26:55;13.10;;;9.02;;
21233;SDS011;10774;42.178;26.578;2023-04-25T04:29:21;13.07;;;9.27;;
21233;SDS011;10774;42.178;26.578;2023-04-25T04:31:47;13.25;;;8.48;;
21233;SDS011;10774;42.178;26.578;2023-04-25T04:34:14;13.85;;;9.63;;
21233;SDS011;10774;42.178;26.578;2023-04-25T04:36:41;12.35;;;9.82;;
21233;SDS011;10774;42.178;26.578;2023-04-25T04:39:07;18.85;;;10.02;;
21233;SDS011;10774;42.178;26.578;2023-04-25T04:41:34;19.65;;;10.30;;
21233;SDS011;10774;42.178;26.578;2023-04-25T04:43:59;16.40;;;10.43;;
21233;SDS011;10774;42.178;26.578;2023-04-25T04:46:26;15.25;;;10.07;;
21233;SDS011;10774;42.178;26.578;2023-04-25T04:48:53;12.90;;;9.88;;
21233;SDS011;10774;42.178;26.578;2023-04-25T04:51:18;18.15;;;10.18;;
21233;SDS011;10774;42.178;26.578;2023-04-25T04:53:45;22.67;;;11.15;;
21233;SDS011;10774;42.178;26.578;2023-04-25T04:56:11;20.80;;;10.30;;
21233;SDS011;10774;42.178;26.578;2023-04-25T04:58:36;16.40;;;9.65;;
21233;SDS011;10774;42.178;26.578;2023-04-25T05:01:02;18.00;;;9.50;;
21233;SDS011;10774;42.178;26.578;2023-04-25T05:03:27;14.07;;;9.27;;
21233;SDS011;10774;42.178;26.578;2023-04-25T05:05:53;11.55;;;9.15;;
21233;SDS011;10774;42.178;26.578;2023-04-25T05:08:20;19.15;;;10.07;;
21233;SDS011;10774;42.178;26.578;2023-04-25T05:10:45;17.45;;;10.52;;
21233;SDS011;10774;42.178;26.578;2023-04-25T05:13:10;15.95;;;10.52;;
21233;SDS011;10774;42.178;26.578;2023-04-25T05:15:36;16.75;;;9.55;;
21233;SDS011;10774;42.178;26.578;2023-04-25T05:18:01;14.75;;;8.85;;
21233;SDS011;10774;42.178;26.578;2023-04-25T05:20:27;14.15;;;10.30;;
21233;SDS011;10774;42.178;26.578;2023-04-25T05:22:52;16.05;;;9.88;;
21233;SDS011;10774;42.178;26.578;2023-04-25T05:25:17;15.18;;;10.65;;
21233;SDS011;10774;42.178;26.578;2023-04-25T05:27:43;18.90;;;12.95;;
21233;SDS011;10774;42.178;26.578;2023-04-25T05:30:08;12.57;;;10.00;;
21233;SDS011;10774;42.178;26.578;2023-04-25T05:32:34;19.00;;;10.30;;
21233;SDS011;10774;42.178;26.578;2023-04-25T05:35:00;16.92;;;10.48;;
21233;SDS011;10774;42.178;26.578;2023-04-25T05:37:26;13.07;;;9.20;;
21233;SDS011;10774;42.178;26.578;2023-04-25T05:39:52;20.40;;;11.82;;
21233;SDS011;10774;42.178;26.578;2023-04-25T05:42:18;15.02;;;9.88;;
21233;SDS011;10774;42.178;26.578;2023-04-25T05:44:44;18.35;;;11.20;;
21233;SDS011;10774;42.178;26.578;2023-04-25T05:47:09;15.13;;;10.93;;
21233;SDS011;10774;42.178;26.578;2023-04-25T05:49:35;17.05;;;10.40;;
21233;SDS011;10774;42.178;26.578;2023-04-25T05:52:00;16.58;;;11.32;;
21233;SDS011;10774;42.178;26.578;2023-04-25T05:54:25;14.68;;;9.80;;
21233;SDS011;10774;42.178;26.578;2023-04-25T05:56:51;17.60;;;9.65;;
21233;SDS011;10774;42.178;26.578;2023-04-25T05:59:16;19.05;;;9.50;;
21233;SDS011;10774;42.178;26.578;2023-04-25T06:01:42;12.27;;;9.05;;
21233;SDS011;10774;42.178;26.578;2023-04-25T06:04:07;12.75;;;9.65;;
21233;SDS011;10774;42.178;26.578;2023-04-25T06:06:32;9.73;;;8.10;;
21233;SDS011;10774;42.178;26.578;2023-04-25T06:08:58;12.15;;;8.55;;
21233;SDS011;10774;42.178;26.578;2023-04-25T06:11:23;10.90;;;8.68;;
21233;SDS011;10774;42.178;26.578;2023-04-25T06:13:48;12.45;;;8.73;;
21233;SDS011;10774;42.178;26.578;2023-04-25T06:16:14;10.75;;;8.43;;
21233;SDS011;10774;42.178;26.578;2023-04-25T06:18:40;14.80;;;9.38;;
21233;SDS011;10774;42.178;26.578;2023-04-25T06:21:05;14.63;;;8.43;;
21233;SDS011;10774;42.178;26.578;2023-04-25T06:23:31;15.93;;;9.40;;
21233;SDS011;10774;42.178;26.578;2023-04-25T06:25:57;11.60;;;8.45;;
21233;SDS011;10774;42.178;26.578;2023-04-25T06:28:22;11.15;;;8.43;;
21233;SDS011;10774;42.178;26.578;2023-04-25T06:30:49;11.23;;;7.43;;
21233;SDS011;10774;42.178;26.578;2023-04-25T06:33:15;9.07;;;7.70;;
21233;SDS011;10774;42.178;26.578;2023-04-25T06:35:40;13.77;;;7.95;;
21233;SDS011;10774;42.178;26.578;2023-04-25T06:38:06;12.35;;;8.02;;
21233;SDS011;10774;42.178;26.578;2023-04-25T06:40:31;15.05;;;7.90;;
21233;SDS011;10774;42.178;26.578;2023-04-25T06:42:56;10.00;;;7.80;;
21233;SDS011;10774;42.178;26.578;2023-04-25T06:45:22;12.18;;;7.72;;
21233;SDS011;10774;42.178;26.578;2023-04-25T06:47:47;13.07;;;7.95;;
21233;SDS011;10774;42.178;26.578;2023-04-25T06:50:13;13.52;;;7.47;;
21233;SDS011;10774;42.178;26.578;2023-04-25T06:52:38;8.25;;;7.07;;
21233;SDS011;10774;42.178;26.578;2023-04-25T06:55:04;9.73;;;6.85;;
21233;SDS011;10774;42.178;26.578;2023-04-25T06:57:30;11.18;;;6.63;;
21233;SDS011;10774;42.178;26.578;2023-04-25T06:59:56;10.93;;;5.68;;
21233;SDS011;10774;42.178;26.578;2023-04-25T07:02:21;10.00;;;5.97;;
21233;SDS011;10774;42.178;26.578;2023-04-25T07:04:47;10.63;;;6.00;;
21233;SDS011;10774;42.178;26.578;2023-04-25T07:07:12;7.82;;;5.40;;
21233;SDS011;10774;42.178;26.578;2023-04-25T07:09:38;10.73;;;5.32;;
21233;SDS011;10774;42.178;26.578;2023-04-25T07:12:03;10.20;;;5.38;;
21233;SDS011;10774;42.178;26.578;2023-04-25T07:14:29;8.13;;;5.18;;
21233;SDS011;10774;42.178;26.578;2023-04-25T07:16:55;7.22;;;5.10;;
21233;SDS011;10774;42.178;26.578;2023-04-25T07:19:23;5.63;;;4.32;;
21233;SDS011;10774;42.178;26.578;2023-04-25T07:21:54;5.38;;;4.45;;
21233;SDS011;10774;42.178;26.578;2023-04-25T07:24:20;9.13;;;4.45;;
21233;SDS011;10774;42.178;26.578;2023-04-25T07:26:45;6.30;;;5.20;;
21233;SDS011;10774;42.178;26.578;2023-04-25T07:29:10;8.75;;;5.72;;
21233;SDS011;10774;42.178;26.578;2023-04-25T07:31:36;9.68;;;5.65;;
21233;SDS011;10774;42.178;26.578;2023-04-25T07:34:01;10.82;;;7.28;;
21233;SDS011;10774;42.178;26.578;2023-04-25T07:36:27;9.65;;;4.68;;
21233;SDS011;10774;42.178;26.578;2023-04-25T07:38:52;8.63;;;5.45;;
21233;SDS011;10774;42.178;26.578;2023-04-25T07:41:18;7.65;;;4.80;;
21233;SDS011;10774;42.178;26.578;2023-04-25T07:43:43;8.48;;;5.53;;
21233;SDS011;10774;42.178;26.578;2023-04-25T07:46:09;10.10;;;5.10;;
21233;SDS011;10774;42.178;26.578;2023-04-25T07:48:34;6.88;;;4.55;;
21233;SDS011;10774;42.178;26.578;2023-04-25T07:51:00;11.77;;;5.30;;
21233;SDS011;10774;42.178;26.578;2023-04-25T07:53:25;5.97;;;4.95;;
21233;SDS011;10774;42.178;26.578;2023-04-25T07:55:50;4.82;;;4.05;;
21233;SDS011;10774;42.178;26.578;2023-04-25T07:58:16;7.18;;;4.57;;
21233;SDS011;10774;42.178;26.578;2023-04-25T08:00:46;8.73;;;4.35;;
21233;SDS011;10774;42.178;26.578;2023-04-25T08:03:11;5.80;;;4.03;;
21233;SDS011;10774;42.178;26.578;2023-04-25T08:05:37;9.63;;;4.45;;
21233;SDS011;10774;42.178;26.578;2023-04-25T08:08:02;6.90;;;4.10;;
21233;SDS011;10774;42.178;26.578;2023-04-25T08:10:28;6.18;;;4.13;;
21233;SDS011;10774;42.178;26.578;2023-04-25T08:12:53;6.00;;;4.45;;
21233;SDS011;10774;42.178;26.578;2023-04-25T08:15:21;4.40;;;4.00;;
21233;SDS011;10774;42.178;26.578;2023-04-25T08:17:47;5.15;;;4.10;;
21233;SDS011;10774;42.178;26.578;2023-04-25T08:20:12;8.30;;;4.38;;
21233;SDS011;10774;42.178;26.578;2023-04-25T08:22:38;10.00;;;3.90;;
21233;SDS011;10774;42.178;26.578;2023-04-25T08:25:03;5.53;;;4.03;;
21233;SDS011;10774;42.178;26.578;2023-04-25T08:27:29;6.47;;;3.58;;
21233;SDS011;10774;42.178;26.578;2023-04-25T08:29:55;5.57;;;3.88;;
21233;SDS011;10774;42.178;26.578;2023-04-25T08:32:20;5.78;;;3.55;;
21233;SDS011;10774;42.178;26.578;2023-04-25T08:34:46;11.65;;;7.82;;
21233;SDS011;10774;42.178;26.578;2023-04-25T08:37:12;9.75;;;7.03;;
21233;SDS011;10774;42.178;26.578;2023-04-25T08:39:37;4.88;;;3.75;;
21233;SDS011;10774;42.178;26.578;2023-04-25T08:42:05;9.50;;;4.20;;
21233;SDS011;10774;42.178;26.578;2023-04-25T08:44:35;6.22;;;4.57;;
21233;SDS011;10774;42.178;26.578;2023-04-25T08:47:03;7.25;;;3.97;;
21233;SDS011;10774;42.178;26.578;2023-04-25T08:49:32;5.88;;;3.60;;
21233;SDS011;10774;42.178;26.578;2023-04-25T08:51:59;4.97;;;3.55;;
21233;SDS011;10774;42.178;26.578;2023-04-25T08:54:26;5.32;;;3.40;;
21233;SDS011;10774;42.178;26.578;2023-04-25T08:56:53;7.57;;;4.38;;
21233;SDS011;10774;42.178;26.578;2023-04-25T08:59:20;6.53;;;3.92;;
21233;SDS011;10774;42.178;26.578;2023-04-25T09:01:48;6.00;;;3.72;;
21233;SDS011;10774;42.178;26.578;2023-04-25T09:04:14;7.53;;;4.30;;
21233;SDS011;10774;42.178;26.578;2023-04-25T09:06:40;7.30;;;3.85;;
21233;SDS011;10774;42.178;26.578;2023-04-25T09:09:06;6.35;;;3.90;;
21233;SDS011;10774;42.178;26.578;2023-04-25T09:11:33;9.50;;;4.30;;
21233;SDS011;10774;42.178;26.578;2023-04-25T09:14:14;6.57;;;3.65;;
21233;SDS011;10774;42.178;26.578;2023-04-25T09:19:39;5.13;;;3.55;;
21233;SDS011;10774;42.178;26.578;2023-04-25T09:22:05;8.05;;;4.03;;
21233;SDS011;10774;42.178;26.578;2023-04-25T09:24:36;4.55;;;3.70;;
21233;SDS011;10774;42.178;26.578;2023-04-25T09:27:27;5.78;;;3.60;;
21233;SDS011;10774;42.178;26.578;2023-04-25T09:29:58;7.07;;;3.42;;
21233;SDS011;10774;42.178;26.578;2023-04-25T09:32:25;4.25;;;3.00;;
21233;SDS011;10774;42.178;26.578;2023-04-25T09:34:51;10.10;;;2.78;;
21233;SDS011;10774;42.178;26.578;2023-04-25T09:37:20;2.80;;;2.50;;
21233;SDS011;10774;42.178;26.578;2023-04-25T09:39:47;3.60;;;2.58;;
21233;SDS011;10774;42.178;26.578;2023-04-25T09:42:14;3.28;;;2.30;;
21233;SDS011;10774;42.178;26.578;2023-04-25T09:44:47;3.40;;;2.83;;
21233;SDS011;10774;42.178;26.578;2023-04-25T09:47:13;3.97;;;2.53;;
21233;SDS011;10774;42.178;26.578;2023-04-25T09:49:42;3.45;;;2.80;;
21233;SDS011;10774;42.178;26.578;2023-04-25T09:52:15;3.30;;;2.88;;
21233;SDS011;10774;42.178;26.578;2023-04-25T09:54:42;5.20;;;2.53;;
21233;SDS011;10774;42.178;26.578;2023-04-25T09:59:51;2.65;;;2.40;;
21233;SDS011;10774;42.178;26.578;2023-04-25T10:02:19;3.97;;;2.40;;
21233;SDS011;10774;42.178;26.578;2023-04-25T10:04:52;3.83;;;2.55;;
21233;SDS011;10774;42.178;26.578;2023-04-25T10:07:20;6.15;;;2.70;;
21233;SDS011;10774;42.178;26.578;2023-04-25T10:10:00;8.75;;;3.15;;
21233;SDS011;10774;42.178;26.578;2023-04-25T10:12:28;5.25;;;3.15;;
21233;SDS011;10774;42.178;26.578;2023-04-25T10:14:54;6.40;;;2.60;;
21233;SDS011;10774;42.178;26.578;2023-04-25T10:17:20;2.78;;;2.30;;
21233;SDS011;10774;42.178;26.578;2023-04-25T10:19:46;4.40;;;2.60;;
21233;SDS011;10774;42.178;26.578;2023-04-25T10:22:32;3.47;;;2.30;;
21233;SDS011;10774;42.178;26.578;2023-04-25T10:25:01;4.50;;;2.70;;
21233;SDS011;10774;42.178;26.578;2023-04-25T10:27:28;3.83;;;2.28;;
21233;SDS011;10774;42.178;26.578;2023-04-25T10:30:01;3.72;;;2.45;;
21233;SDS011;10774;42.178;26.578;2023-04-25T10:32:30;6.97;;;2.53;;
21233;SDS011;10774;42.178;26.578;2023-04-25T10:34:56;4.70;;;2.42;;
21233;SDS011;10774;42.178;26.578;2023-04-25T10:37:22;3.33;;;2.20;;
21233;SDS011;10774;42.178;26.578;2023-04-25T10:39:49;2.35;;;2.00;;
21233;SDS011;10774;42.178;26.578;2023-04-25T10:42:14;4.68;;;2.17;;
21233;SDS011;10774;42.178;26.578;2023-04-25T10:44:40;4.85;;;2.22;;
21233;SDS011;10774;42.178;26.578;2023-04-25T10:47:06;3.20;;;2.00;;
21233;SDS011;10774;42.178;26.578;2023-04-25T10:49:42;3.38;;;2.08;;
21233;SDS011;10774;42.178;26.578;2023-04-25T10:54:53;3.72;;;1.85;;
21233;SDS011;10774;42.178;26.578;2023-04-25T10:57:32;2.75;;;1.80;;
21233;SDS011;10774;42.178;26.578;2023-04-25T11:02:37;3.60;;;1.70;;
21233;SDS011;10774;42.178;26.578;2023-04-25T11:05:05;2.90;;;1.80;;
21233;SDS011;10774;42.178;26.578;2023-04-25T11:10:02;4.43;;;2.38;;
21233;SDS011;10774;42.178;26.578;2023-04-25T11:12:29;4.43;;;2.00;;
21233;SDS011;10774;42.178;26.578;2023-04-25T11:15:03;4.45;;;2.90;;
21233;SDS011;10774;42.178;26.578;2023-04-25T11:17:29;8.95;;;3.38;;
21233;SDS011;10774;42.178;26.578;2023-04-25T11:19:55;4.32;;;2.33;;
21233;SDS011;10774;42.178;26.578;2023-04-25T11:22:21;5.40;;;2.85;;
21233;SDS011;10774;42.178;26.578;2023-04-25T11:24:48;3.15;;;2.05;;
21233;SDS011;10774;42.178;26.578;2023-04-25T11:27:13;5.18;;;2.25;;
21233;SDS011;10774;42.178;26.578;2023-04-25T11:29:39;5.43;;;2.40;;
21233;SDS011;10774;42.178;26.578;2023-04-25T11:32:06;4.78;;;2.35;;
21233;SDS011;10774;42.178;26.578;2023-04-25T11:34:31;4.47;;;1.80;;
21233;SDS011;10774;42.178;26.578;2023-04-25T11:36:58;3.08;;;1.45;;
21233;SDS011;10774;42.178;26.578;2023-04-25T11:39:24;2.42;;;1.38;;
21233;SDS011;10774;42.178;26.578;2023-04-25T11:41:51;2.78;;;2.22;;
21233;SDS011;10774;42.178;26.578;2023-04-25T11:44:18;3.13;;;2.20;;
21233;SDS011;10774;42.178;26.578;2023-04-25T11:46:44;3.72;;;1.90;;
21233;SDS011;10774;42.178;26.578;2023-04-25T11:49:10;2.63;;;1.83;;
21233;SDS011;10774;42.178;26.578;2023-04-25T11:51:39;5.18;;;2.85;;
21233;SDS011;10774;42.178;26.578;2023-04-25T11:54:08;4.28;;;2.10;;
21233;SDS011;10774;42.178;26.578;2023-04-25T11:56:34;2.30;;;1.73;;
21233;SDS011;10774;42.178;26.578;2023-04-25T11:59:03;9.15;;;4.55;;
21233;SDS011;10774;42.178;26.578;2023-04-25T12:01:31;7.68;;;5.03;;
21233;SDS011;10774;42.178;26.578;2023-04-25T12:03:58;2.67;;;2.35;;
21233;SDS011;10774;42.178;26.578;2023-04-25T12:06:27;5.38;;;3.78;;
21233;SDS011;10774;42.178;26.578;2023-04-25T12:09:00;4.50;;;3.67;;
21233;SDS011;10774;42.178;26.578;2023-04-25T12:11:25;3.40;;;2.40;;
21233;SDS011;10774;42.178;26.578;2023-04-25T12:13:51;4.65;;;2.08;;
21233;SDS011;10774;42.178;26.578;2023-04-25T12:16:18;3.17;;;1.80;;
21233;SDS011;10774;42.178;26.578;2023-04-25T12:18:44;3.38;;;1.90;;
21233;SDS011;10774;42.178;26.578;2023-04-25T12:21:09;4.25;;;2.42;;
21233;SDS011;10774;42.178;26.578;2023-04-25T12:23:35;3.15;;;2.50;;
21233;SDS011;10774;42.178;26.578;2023-04-25T12:26:04;4.78;;;2.00;;
21233;SDS011;10774;42.178;26.578;2023-04-25T12:28:31;2.28;;;2.08;;
21233;SDS011;10774;42.178;26.578;2023-04-25T12:33:26;6.95;;;3.97;;
21233;SDS011;10774;42.178;26.578;2023-04-25T12:35:53;3.92;;;2.20;;
21233;SDS011;10774;42.178;26.578;2023-04-25T12:38:25;3.58;;;1.77;;
21233;SDS011;10774;42.178;26.578;2023-04-25T12:40:55;3.95;;;2.40;;
21233;SDS011;10774;42.178;26.578;2023-04-25T12:43:21;3.47;;;2.13;;
21233;SDS011;10774;42.178;26.578;2023-04-25T12:45:47;3.83;;;2.08;;
21233;SDS011;10774;42.178;26.578;2023-04-25T12:48:14;5.72;;;1.75;;
21233;SDS011;10774;42.178;26.578;2023-04-25T12:50:39;2.42;;;1.45;;
21233;SDS011;10774;42.178;26.578;2023-04-25T12:53:06;3.13;;;1.83;;
21233;SDS011;10774;42.178;26.578;2023-04-25T12:55:31;3.63;;;2.25;;
21233;SDS011;10774;42.178;26.578;2023-04-25T12:57:57;3.97;;;2.50;;
21233;SDS011;10774;42.178;26.578;2023-04-25T13:00:22;2.45;;;1.92;;
21233;SDS011;10774;42.178;26.578;2023-04-25T13:02:48;2.30;;;2.00;;
21233;SDS011;10774;42.178;26.578;2023-04-25T13:05:13;3.08;;;1.83;;
21233;SDS011;10774;42.178;26.578;2023-04-25T13:07:38;3.55;;;2.53;;
21233;SDS011;10774;42.178;26.578;2023-04-25T13:10:04;3.00;;;1.88;;
21233;SDS011;10774;42.178;26.578;2023-04-25T13:12:30;3.75;;;2.25;;
21233;SDS011;10774;42.178;26.578;2023-04-25T13:14:56;3.15;;;2.05;;
21233;SDS011;10774;42.178;26.578;2023-04-25T13:17:22;4.35;;;3.00;;
21233;SDS011;10774;42.178;26.578;2023-04-25T13:19:47;3.47;;;2.60;;
21233;SDS011;10774;42.178;26.578;2023-04-25T13:22:13;5.07;;;3.83;;
21233;SDS011;10774;42.178;26.578;2023-04-25T13:24:40;4.72;;;2.55;;
21233;SDS011;10774;42.178;26.578;2023-04-25T13:27:05;7.70;;;2.92;;
21233;SDS011;10774;42.178;26.578;2023-04-25T13:29:31;7.47;;;3.47;;
21233;SDS011;10774;42.178;26.578;2023-04-25T13:31:59;10.52;;;6.35;;
21233;SDS011;10774;42.178;26.578;2023-04-25T13:34:24;12.50;;;7.43;;
21233;SDS011;10774;42.178;26.578;2023-04-25T13:36:50;12.80;;;7.53;;
21233;SDS011;10774;42.178;26.578;2023-04-25T13:39:15;4.60;;;3.85;;
21233;SDS011;10774;42.178;26.578;2023-04-25T13:41:41;4.63;;;3.08;;
21233;SDS011;10774;42.178;26.578;2023-04-25T13:44:06;5.57;;;2.95;;
21233;SDS011;10774;42.178;26.578;2023-04-25T13:46:31;7.07;;;3.25;;
21233;SDS011;10774;42.178;26.578;2023-04-25T13:48:57;18.25;;;10.23;;
21233;SDS011;10774;42.178;26.578;2023-04-25T13:51:22;6.82;;;3.67;;
21233;SDS011;10774;42.178;26.578;2023-04-25T13:53:47;9.10;;;5.53;;
21233;SDS011;10774;42.178;26.578;2023-04-25T13:56:13;24.63;;;14.75;;
21233;SDS011;10774;42.178;26.578;2023-04-25T13:58:38;6.80;;;3.00;;
21233;SDS011;10774;42.178;26.578;2023-04-25T14:01:04;4.55;;;2.92;;
21233;SDS011;10774;42.178;26.578;2023-04-25T14:03:30;1.92;;;1.35;;
21233;SDS011;10774;42.178;26.578;2023-04-25T14:05:56;3.58;;;2.60;;
21233;SDS011;10774;42.178;26.578;2023-04-25T14:08:21;2.80;;;1.50;;
21233;SDS011;10774;42.178;26.578;2023-04-25T14:10:47;1.15;;;0.80;;
21233;SDS011;10774;42.178;26.578;2023-04-25T14:13:12;1.45;;;0.90;;
21233;SDS011;10774;42.178;26.578;2023-04-25T14:15:38;0.98;;;0.80;;
21233;SDS011;10774;42.178;26.578;2023-04-25T14:18:03;1.02;;;0.82;;
21233;SDS011;10774;42.178;26.578;2023-04-25T14:20:29;2.22;;;0.60;;
21233;SDS011;10774;42.178;26.578;2023-04-25T14:22:55;0.57;;;0.47;;
21233;SDS011;10774;42.178;26.578;2023-04-25T14:25:22;0.85;;;0.40;;
21233;SDS011;10774;42.178;26.578;2023-04-25T14:27:48;1.80;;;0.75;;
21233;SDS011;10774;42.178;26.578;2023-04-25T14:30:17;1.30;;;0.70;;
21233;SDS011;10774;42.178;26.578;2023-04-25T14:32:43;1.80;;;1.10;;
21233;SDS011;10774;42.178;26.578;2023-04-25T14:35:09;2.35;;;0.93;;
21233;SDS011;10774;42.178;26.578;2023-04-25T14:37:35;1.45;;;0.90;;
21233;SDS011;10774;42.178;26.578;2023-04-25T14:40:00;1.63;;;0.70;;